sensor_id;sensor_type;location;lat;lon;timestamp;pressure;altitude;pressure_sealevel;temperature;humidity
4415;BME280;2220;42.670;23.398;2024-03-02T00:01:06;93304.22;;;7.98;100.00
4415;BME280;2220;42.670;23.398;2024-03-02T00:03:32;93307.03;;;8.02;100.00
4415;BME280;2220;42.670;23.398;2024-03-02T00:05:58;93334.88;;;7.91;100.00
4415;BME280;2220;42.670;23.398;2024-03-02T00:08:25;93337.19;;;7.93;100.00
4415;BME280;2220;42.670;23.398;2024-03-02T00:10:51;93337.47;;;7.91;100.00
4415;BME280;2220;42.670;23.398;2024-03-02T00:13:20;93339.78;;;7.93;100.00
4415;BME280;2220;42.670;23.398;2024-03-02T00:15:52;93347.06;;;7.91;100.00
4415;BME280;2220;42.670;23.398;2024-03-02T00:18:20;93342.06;;;7.99;100.00
4415;BME280;2220;42.670;23.398;2024-03-02T00:20:46;93337.66;;;8.00;100.00
4415;BME280;2220;42.670;23.398;2024-03-02T00:23:15;93355.03;;;7.99;100.00
4415;BME280;2220;42.670;23.398;2024-03-02T00:25:48;93355.00;;;8.04;100.00
4415;BME280;2220;42.670;23.398;2024-03-02T00:33:22;93373.19;;;7.99;100.00
4415;BME280;2220;42.670;23.398;2024-03-02T00:35:49;93374.47;;;8.02;100.00
4415;BME280;2220;42.670;23.398;2024-03-02T00:38:15;93370.47;;;8.14;100.00
4415;BME280;2220;42.670;23.398;2024-03-02T00:40:44;93369.19;;;8.12;100.00
4415;BME280;2220;42.670;23.398;2024-03-02T00:45:56;93391.03;;;8.06;100.00
4415;BME280;2220;42.670;23.398;2024-03-02T00:48:22;93393.16;;;7.99;100.00
4415;BME280;2220;42.670;23.398;2024-03-02T00:50:54;93382.44;;;8.10;100.00
4415;BME280;2220;42.670;23.398;2024-03-02T00:53:23;93384.94;;;8.21;100.00
4415;BME280;2220;42.670;23.398;2024-03-02T00:55:52;93390.06;;;8.26;100.00
4415;BME280;2220;42.670;23.398;2024-03-02T00:58:17;93397.84;;;8.26;100.00
4415;BME280;2220;42.670;23.398;2024-03-02T01:00:43;93411.84;;;8.35;100.00
4415;BME280;2220;42.670;23.398;2024-03-02T01:03:08;93417.53;;;8.32;100.00
4415;BME280;2220;42.670;23.398;2024-03-02T01:05:36;93431.84;;;8.24;100.00
4415;BME280;2220;42.670;23.398;2024-03-02T01:08:01;93446.56;;;8.34;100.00
4415;BME280;2220;42.670;23.398;2024-03-02T01:10:26;93465.25;;;8.31;100.00
4415;BME280;2220;42.670;23.398;2024-03-02T01:12:52;93465.75;;;8.33;100.00
4415;BME280;2220;42.670;23.398;2024-03-02T01:15:18;93473.59;;;8.28;100.00
4415;BME280;2220;42.670;23.398;2024-03-02T01:17:43;93482.88;;;8.39;100.00
4415;BME280;2220;42.670;23.398;2024-03-02T01:20:09;93484.66;;;8.44;100.00
4415;BME280;2220;42.670;23.398;2024-03-02T01:22:35;93498.41;;;8.44;100.00
4415;BME280;2220;42.670;23.398;2024-03-02T01:25:01;93507.25;;;8.43;100.00
4415;BME280;2220;42.670;23.398;2024-03-02T01:27:26;93494.75;;;8.45;100.00
4415;BME280;2220;42.670;23.398;2024-03-02T01:29:52;93477.88;;;8.48;100.00
4415;BME280;2220;42.670;23.398;2024-03-02T01:32:17;93478.19;;;8.41;100.00
4415;BME280;2220;42.670;23.398;2024-03-02T01:34:43;93469.41;;;8.37;100.00
4415;BME280;2220;42.670;23.398;2024-03-02T01:37:08;93442.97;;;8.35;100.00
4415;BME280;2220;42.670;23.398;2024-03-02T01:39:35;93419.84;;;8.33;100.00
4415;BME280;2220;42.670;23.398;2024-03-02T01:42:00;93402.06;;;8.22;100.00
4415;BME280;2220;42.670;23.398;2024-03-02T01:44:26;93371.69;;;8.22;100.00
4415;BME280;2220;42.670;23.398;2024-03-02T01:46:51;93353.25;;;8.24;100.00
4415;BME280;2220;42.670;23.398;2024-03-02T01:49:17;93333.06;;;8.21;100.00
4415;BME280;2220;42.670;23.398;2024-03-02T01:51:44;93306.91;;;8.17;100.00
4415;BME280;2220;42.670;23.398;2024-03-02T01:54:09;93296.53;;;8.17;100.00
4415;BME280;2220;42.670;23.398;2024-03-02T01:56:35;93294.59;;;8.04;100.00
4415;BME280;2220;42.670;23.398;2024-03-02T01:59:00;93273.78;;;8.09;100.00
4415;BME280;2220;42.670;23.398;2024-03-02T02:01:26;93266.16;;;7.94;100.00
4415;BME280;2220;42.670;23.398;2024-03-02T02:03:51;93270.06;;;7.91;100.00
4415;BME280;2220;42.670;23.398;2024-03-02T02:06:17;93253.84;;;7.80;100.00
4415;BME280;2220;42.670;23.398;2024-03-02T02:08:42;93236.88;;;7.93;100.00
4415;BME280;2220;42.670;23.398;2024-03-02T02:11:08;93227.47;;;8.02;100.00
4415;BME280;2220;42.670;23.398;2024-03-02T02:13:33;93233.06;;;8.09;100.00
4415;BME280;2220;42.670;23.398;2024-03-02T02:16:08;93246.53;;;8.11;100.00
4415;BME280;2220;42.670;23.398;2024-03-02T02:18:34;93249.31;;;8.20;100.00
4415;BME280;2220;42.670;23.398;2024-03-02T02:21:01;93262.16;;;8.06;100.00
4415;BME280;2220;42.670;23.398;2024-03-02T02:23:26;93275.88;;;8.07;100.00
4415;BME280;2220;42.670;23.398;2024-03-02T02:25:52;93259.00;;;8.09;100.00
4415;BME280;2220;42.670;23.398;2024-03-02T02:28:17;93246.59;;;8.06;100.00
4415;BME280;2220;42.670;23.398;2024-03-02T02:30:42;93241.63;;;8.10;100.00
4415;BME280;2220;42.670;23.398;2024-03-02T02:33:08;93236.72;;;8.08;100.00
4415;BME280;2220;42.670;23.398;2024-03-02T02:35:34;93216.53;;;8.05;100.00
4415;BME280;2220;42.670;23.398;2024-03-02T02:38:00;93221.72;;;8.05;100.00
4415;BME280;2220;42.670;23.398;2024-03-02T02:40:26;93221.91;;;8.09;100.00
4415;BME280;2220;42.670;23.398;2024-03-02T02:42:52;93226.84;;;8.10;100.00
4415;BME280;2220;42.670;23.398;2024-03-02T02:45:17;93223.53;;;8.05;100.00
4415;BME280;2220;42.670;23.398;2024-03-02T02:47:43;93224.69;;;7.94;100.00
4415;BME280;2220;42.670;23.398;2024-03-02T02:50:11;93211.63;;;7.80;100.00
4415;BME280;2220;42.670;23.398;2024-03-02T02:52:38;93188.38;;;7.94;100.00
4415;BME280;2220;42.670;23.398;2024-03-02T02:55:06;93176.22;;;7.94;100.00
4415;BME280;2220;42.670;23.398;2024-03-02T02:57:33;93179.78;;;7.98;100.00
4415;BME280;2220;42.670;23.398;2024-03-02T03:00:13;93176.13;;;7.99;100.00
4415;BME280;2220;42.670;23.398;2024-03-02T03:02:45;93176.38;;;8.03;100.00
4415;BME280;2220;42.670;23.398;2024-03-02T03:05:13;93187.00;;;8.01;100.00
4415;BME280;2220;42.670;23.398;2024-03-02T03:07:40;93175.38;;;7.99;100.00
4415;BME280;2220;42.670;23.398;2024-03-02T03:10:06;93172.22;;;8.02;100.00
4415;BME280;2220;42.670;23.398;2024-03-02T03:12:33;93182.81;;;7.81;100.00
4415;BME280;2220;42.670;23.398;2024-03-02T03:14:59;93168.47;;;7.89;100.00
4415;BME280;2220;42.670;23.398;2024-03-02T03:17:24;93160.72;;;7.89;100.00
4415;BME280;2220;42.670;23.398;2024-03-02T03:19:50;93160.16;;;7.92;100.00
4415;BME280;2220;42.670;23.398;2024-03-02T03:22:16;93157.28;;;7.94;100.00
4415;BME280;2220;42.670;23.398;2024-03-02T03:24:41;93163.19;;;7.99;100.00
4415;BME280;2220;42.670;23.398;2024-03-02T03:27:07;93154.63;;;7.99;100.00
4415;BME280;2220;42.670;23.398;2024-03-02T03:29:32;93163.75;;;7.96;100.00
4415;BME280;2220;42.670;23.398;2024-03-02T03:31:57;93177.63;;;8.05;100.00
4415;BME280;2220;42.670;23.398;2024-03-02T03:34:23;93182.78;;;8.10;100.00
4415;BME280;2220;42.670;23.398;2024-03-02T03:36:48;93180.22;;;8.05;100.00
4415;BME280;2220;42.670;23.398;2024-03-02T03:39:13;93175.31;;;8.04;100.00
4415;BME280;2220;42.670;23.398;2024-03-02T03:41:40;93186.94;;;8.06;100.00
4415;BME280;2220;42.670;23.398;2024-03-02T03:44:05;93180.72;;;8.07;100.00
4415;BME280;2220;42.670;23.398;2024-03-02T03:46:31;93191.66;;;8.04;100.00
4415;BME280;2220;42.670;23.398;2024-03-02T03:48:56;93183.31;;;8.07;100.00
4415;BME280;2220;42.670;23.398;2024-03-02T03:51:22;93179.94;;;8.07;100.00
4415;BME280;2220;42.670;23.398;2024-03-02T03:53:50;93180.44;;;8.09;100.00
4415;BME280;2220;42.670;23.398;2024-03-02T03:56:16;93169.72;;;8.16;100.00
4415;BME280;2220;42.670;23.398;2024-03-02T03:58:41;93173.84;;;8.17;100.00
4415;BME280;2220;42.670;23.398;2024-03-02T04:01:06;93177.75;;;8.19;100.00
4415;BME280;2220;42.670;23.398;2024-03-02T04:03:32;93191.56;;;8.09;100.00
4415;BME280;2220;42.670;23.398;2024-03-02T04:05:57;93198.88;;;8.07;100.00
4415;BME280;2220;42.670;23.398;2024-03-02T04:08:22;93210.00;;;8.08;100.00
4415;BME280;2220;42.670;23.398;2024-03-02T04:10:48;93205.44;;;8.00;100.00
4415;BME280;2220;42.670;23.398;2024-03-02T04:13:13;93216.28;;;8.02;100.00
4415;BME280;2220;42.670;23.398;2024-03-02T04:15:39;93224.63;;;7.99;100.00
4415;BME280;2220;42.670;23.398;2024-03-02T04:18:06;93214.22;;;8.04;100.00
4415;BME280;2220;42.670;23.398;2024-03-02T04:20:31;93208.47;;;8.07;100.00
4415;BME280;2220;42.670;23.398;2024-03-02T04:22:56;93204.28;;;8.11;100.00
4415;BME280;2220;42.670;23.398;2024-03-02T04:25:22;93206.59;;;8.12;100.00
4415;BME280;2220;42.670;23.398;2024-03-02T04:27:47;93211.53;;;8.09;100.00
4415;BME280;2220;42.670;23.398;2024-03-02T04:30:13;93218.06;;;8.06;100.00
4415;BME280;2220;42.670;23.398;2024-03-02T04:32:38;93213.38;;;8.08;100.00
4415;BME280;2220;42.670;23.398;2024-03-02T04:35:04;93210.28;;;8.06;100.00
4415;BME280;2220;42.670;23.398;2024-03-02T04:37:33;93209.25;;;8.07;100.00
4415;BME280;2220;42.670;23.398;2024-03-02T04:39:58;93209.63;;;7.96;100.00
4415;BME280;2220;42.670;23.398;2024-03-02T04:42:23;93209.84;;;7.99;100.00
4415;BME280;2220;42.670;23.398;2024-03-02T04:44:49;93217.63;;;7.99;100.00
4415;BME280;2220;42.670;23.398;2024-03-02T04:47:15;93216.28;;;8.02;100.00
4415;BME280;2220;42.670;23.398;2024-03-02T04:49:40;93238.38;;;7.99;100.00
4415;BME280;2220;42.670;23.398;2024-03-02T04:52:06;93293.41;;;7.91;100.00
4415;BME280;2220;42.670;23.398;2024-03-02T04:54:31;93360.50;;;7.98;100.00
4415;BME280;2220;42.670;23.398;2024-03-02T04:56:57;93356.91;;;7.94;100.00
4415;BME280;2220;42.670;23.398;2024-03-02T04:59:22;93354.84;;;7.91;100.00
4415;BME280;2220;42.670;23.398;2024-03-02T05:01:47;93345.03;;;7.88;100.00
4415;BME280;2220;42.670;23.398;2024-03-02T05:04:13;93342.16;;;7.89;100.00
4415;BME280;2220;42.670;23.398;2024-03-02T05:06:39;93340.94;;;7.81;100.00
4415;BME280;2220;42.670;23.398;2024-03-02T05:09:08;93328.00;;;7.76;100.00
4415;BME280;2220;42.670;23.398;2024-03-02T05:11:34;93325.19;;;7.73;100.00
4415;BME280;2220;42.670;23.398;2024-03-02T05:14:03;93311.22;;;7.69;100.00
4415;BME280;2220;42.670;23.398;2024-03-02T05:16:29;93301.19;;;7.62;100.00
4415;BME280;2220;42.670;23.398;2024-03-02T05:18:54;93301.50;;;7.55;100.00
4415;BME280;2220;42.670;23.398;2024-03-02T05:21:20;93290.84;;;7.57;100.00
4415;BME280;2220;42.670;23.398;2024-03-02T05:23:46;93276.06;;;7.63;100.00
4415;BME280;2220;42.670;23.398;2024-03-02T05:26:11;93261.00;;;7.65;100.00
4415;BME280;2220;42.670;23.398;2024-03-02T05:28:39;93266.38;;;7.68;100.00
4415;BME280;2220;42.670;23.398;2024-03-02T05:31:04;93220.63;;;7.58;100.00
4415;BME280;2220;42.670;23.398;2024-03-02T05:33:30;93227.31;;;7.65;100.00
4415;BME280;2220;42.670;23.398;2024-03-02T05:35:58;93220.00;;;7.72;100.00
4415;BME280;2220;42.670;23.398;2024-03-02T05:38:23;93195.94;;;7.66;100.00
4415;BME280;2220;42.670;23.398;2024-03-02T05:40:49;93232.09;;;7.76;100.00
4415;BME280;2220;42.670;23.398;2024-03-02T05:43:14;93204.59;;;7.80;100.00
4415;BME280;2220;42.670;23.398;2024-03-02T05:45:40;93186.97;;;7.82;100.00
4415;BME280;2220;42.670;23.398;2024-03-02T05:48:08;92975.16;;;8.02;100.00
4415;BME280;2220;42.670;23.398;2024-03-02T05:50:34;92808.44;;;8.48;100.00
4415;BME280;2220;42.670;23.398;2024-03-02T05:53:00;92731.66;;;8.33;100.00
4415;BME280;2220;42.670;23.398;2024-03-02T05:55:25;92687.88;;;8.18;100.00
4415;BME280;2220;42.670;23.398;2024-03-02T05:57:50;92626.91;;;8.06;100.00
4415;BME280;2220;42.670;23.398;2024-03-02T06:00:31;92554.53;;;7.96;100.00
4415;BME280;2220;42.670;23.398;2024-03-02T06:02:57;92507.97;;;7.91;100.00
4415;BME280;2220;42.670;23.398;2024-03-02T06:05:23;92463.16;;;7.91;100.00
4415;BME280;2220;42.670;23.398;2024-03-02T06:07:48;92383.97;;;7.84;100.00
4415;BME280;2220;42.670;23.398;2024-03-02T06:10:13;92216.59;;;7.83;100.00
4415;BME280;2220;42.670;23.398;2024-03-02T06:12:39;92152.59;;;7.84;100.00
4415;BME280;2220;42.670;23.398;2024-03-02T06:15:05;92104.88;;;7.85;100.00
4415;BME280;2220;42.670;23.398;2024-03-02T06:17:31;92070.25;;;7.64;100.00
4415;BME280;2220;42.670;23.398;2024-03-02T06:19:56;92020.38;;;7.49;100.00
4415;BME280;2220;42.670;23.398;2024-03-02T06:22:21;91943.75;;;7.40;100.00
4415;BME280;2220;42.670;23.398;2024-03-02T06:24:50;91895.63;;;7.39;100.00
4415;BME280;2220;42.670;23.398;2024-03-02T06:27:15;91862.72;;;7.31;100.00
4415;BME280;2220;42.670;23.398;2024-03-02T06:29:41;91831.34;;;7.32;100.00
4415;BME280;2220;42.670;23.398;2024-03-02T06:32:07;91830.72;;;7.35;100.00
4415;BME280;2220;42.670;23.398;2024-03-02T06:34:32;91828.13;;;7.26;100.00
4415;BME280;2220;42.670;23.398;2024-03-02T06:36:58;91820.81;;;7.28;100.00
4415;BME280;2220;42.670;23.398;2024-03-02T06:39:23;91823.56;;;7.41;100.00
4415;BME280;2220;42.670;23.398;2024-03-02T06:41:48;91818.84;;;7.34;100.00
4415;BME280;2220;42.670;23.398;2024-03-02T06:44:14;91772.09;;;7.39;100.00
4415;BME280;2220;42.670;23.398;2024-03-02T06:46:39;91736.13;;;7.38;100.00
4415;BME280;2220;42.670;23.398;2024-03-02T06:49:04;91721.38;;;7.38;100.00
4415;BME280;2220;42.670;23.398;2024-03-02T06:51:30;91694.69;;;7.38;100.00
4415;BME280;2220;42.670;23.398;2024-03-02T06:53:55;91641.84;;;7.47;100.00
4415;BME280;2220;42.670;23.398;2024-03-02T06:56:21;91624.06;;;7.28;100.00
4415;BME280;2220;42.670;23.398;2024-03-02T06:58:47;91524.03;;;7.33;100.00
4415;BME280;2220;42.670;23.398;2024-03-02T07:01:12;91460.06;;;7.33;100.00
4415;BME280;2220;42.670;23.398;2024-03-02T07:03:38;91438.59;;;7.33;100.00
4415;BME280;2220;42.670;23.398;2024-03-02T07:06:05;91424.88;;;7.32;100.00
4415;BME280;2220;42.670;23.398;2024-03-02T07:08:30;91417.28;;;7.27;100.00
4415;BME280;2220;42.670;23.398;2024-03-02T07:10:56;91398.69;;;7.34;100.00
4415;BME280;2220;42.670;23.398;2024-03-02T07:13:22;91404.50;;;7.31;100.00
4415;BME280;2220;42.670;23.398;2024-03-02T07:15:47;91402.47;;;7.36;100.00
4415;BME280;2220;42.670;23.398;2024-03-02T07:18:25;91398.50;;;7.39;100.00
4415;BME280;2220;42.670;23.398;2024-03-02T07:20:50;91405.44;;;7.26;100.00
4415;BME280;2220;42.670;23.398;2024-03-02T07:23:16;91403.28;;;7.28;100.00
4415;BME280;2220;42.670;23.398;2024-03-02T07:25:41;91416.69;;;7.30;100.00
4415;BME280;2220;42.670;23.398;2024-03-02T07:28:06;91408.28;;;7.33;100.00
4415;BME280;2220;42.670;23.398;2024-03-02T07:30:35;91398.88;;;7.49;100.00
4415;BME280;2220;42.670;23.398;2024-03-02T07:33:00;91402.97;;;7.50;100.00
4415;BME280;2220;42.670;23.398;2024-03-02T07:35:26;91412.69;;;7.53;100.00
4415;BME280;2220;42.670;23.398;2024-03-02T07:37:53;91422.50;;;7.48;100.00
4415;BME280;2220;42.670;23.398;2024-03-02T07:40:19;91416.59;;;7.60;100.00
4415;BME280;2220;42.670;23.398;2024-03-02T07:42:45;91410.72;;;7.71;100.00
4415;BME280;2220;42.670;23.398;2024-03-02T07:45:10;91417.84;;;7.74;100.00
4415;BME280;2220;42.670;23.398;2024-03-02T07:47:36;91405.53;;;7.71;100.00
4415;BME280;2220;42.670;23.398;2024-03-02T07:50:02;91402.31;;;7.74;100.00
4415;BME280;2220;42.670;23.398;2024-03-02T07:52:28;91380.34;;;7.60;100.00
4415;BME280;2220;42.670;23.398;2024-03-02T07:54:53;91394.38;;;7.58;100.00
4415;BME280;2220;42.670;23.398;2024-03-02T07:57:19;91382.59;;;7.61;100.00
4415;BME280;2220;42.670;23.398;2024-03-02T07:59:45;91369.47;;;7.66;100.00
4415;BME280;2220;42.670;23.398;2024-03-02T08:02:10;91364.19;;;7.63;100.00
4415;BME280;2220;42.670;23.398;2024-03-02T08:04:37;91366.97;;;7.57;100.00
4415;BME280;2220;42.670;23.398;2024-03-02T08:07:03;91357.41;;;7.70;100.00
4415;BME280;2220;42.670;23.398;2024-03-02T08:09:29;91337.38;;;7.58;100.00
4415;BME280;2220;42.670;23.398;2024-03-02T08:11:55;91343.81;;;7.73;100.00
4415;BME280;2220;42.670;23.398;2024-03-02T08:14:22;91332.72;;;7.85;100.00
4415;BME280;2220;42.670;23.398;2024-03-02T08:16:47;91328.84;;;7.91;100.00
4415;BME280;2220;42.670;23.398;2024-03-02T08:19:12;91362.09;;;8.01;100.00
4415;BME280;2220;42.670;23.398;2024-03-02T08:21:38;91356.84;;;8.10;100.00
4415;BME280;2220;42.670;23.398;2024-03-02T08:24:04;91356.94;;;8.01;100.00
4415;BME280;2220;42.670;23.398;2024-03-02T08:26:29;91361.25;;;7.97;100.00
4415;BME280;2220;42.670;23.398;2024-03-02T08:28:59;91372.72;;;8.08;100.00
4415;BME280;2220;42.670;23.398;2024-03-02T08:31:27;91366.56;;;8.13;100.00
4415;BME280;2220;42.670;23.398;2024-03-02T08:33:52;91372.38;;;8.10;100.00
4415;BME280;2220;42.670;23.398;2024-03-02T08:36:18;91363.22;;;8.12;100.00
4415;BME280;2220;42.670;23.398;2024-03-02T08:38:44;91353.75;;;8.29;100.00
4415;BME280;2220;42.670;23.398;2024-03-02T08:41:09;91365.06;;;8.24;100.00
4415;BME280;2220;42.670;23.398;2024-03-02T08:43:35;91359.13;;;8.24;100.00
4415;BME280;2220;42.670;23.398;2024-03-02T08:46:00;91359.88;;;8.24;100.00
4415;BME280;2220;42.670;23.398;2024-03-02T08:48:26;91351.41;;;8.36;100.00
4415;BME280;2220;42.670;23.398;2024-03-02T08:50:51;91361.53;;;8.29;100.00
4415;BME280;2220;42.670;23.398;2024-03-02T08:53:17;91351.16;;;8.41;100.00
4415;BME280;2220;42.670;23.398;2024-03-02T08:55:45;91338.78;;;8.59;100.00
4415;BME280;2220;42.670;23.398;2024-03-02T08:58:11;91328.69;;;8.69;100.00
4415;BME280;2220;42.670;23.398;2024-03-02T09:00:36;91329.34;;;8.66;100.00
4415;BME280;2220;42.670;23.398;2024-03-02T09:03:02;91338.88;;;8.75;100.00
4415;BME280;2220;42.670;23.398;2024-03-02T09:05:27;91334.28;;;8.96;100.00
4415;BME280;2220;42.670;23.398;2024-03-02T09:07:52;91344.44;;;8.89;100.00
4415;BME280;2220;42.670;23.398;2024-03-02T09:10:18;91348.56;;;8.90;100.00
4415;BME280;2220;42.670;23.398;2024-03-02T09:12:43;91320.94;;;9.50;100.00
4415;BME280;2220;42.670;23.398;2024-03-02T09:15:09;91334.19;;;9.33;100.00
4415;BME280;2220;42.670;23.398;2024-03-02T09:17:34;91339.47;;;9.36;100.00
4415;BME280;2220;42.670;23.398;2024-03-02T09:20:00;91355.53;;;9.14;100.00
4415;BME280;2220;42.670;23.398;2024-03-02T09:22:25;91361.53;;;9.02;100.00
4415;BME280;2220;42.670;23.398;2024-03-02T09:24:50;91363.47;;;9.05;100.00
4415;BME280;2220;42.670;23.398;2024-03-02T09:27:16;91350.31;;;8.86;100.00
4415;BME280;2220;42.670;23.398;2024-03-02T09:29:41;91347.66;;;9.10;100.00
4415;BME280;2220;42.670;23.398;2024-03-02T09:32:08;91363.91;;;8.95;100.00
4415;BME280;2220;42.670;23.398;2024-03-02T09:34:33;91362.81;;;8.96;100.00
4415;BME280;2220;42.670;23.398;2024-03-02T09:36:59;91359.25;;;8.88;100.00
4415;BME280;2220;42.670;23.398;2024-03-02T09:39:24;91350.94;;;9.07;100.00
4415;BME280;2220;42.670;23.398;2024-03-02T09:41:50;91361.00;;;8.84;100.00
4415;BME280;2220;42.670;23.398;2024-03-02T09:44:16;91364.13;;;8.90;100.00
4415;BME280;2220;42.670;23.398;2024-03-02T09:46:41;91360.47;;;8.79;100.00
4415;BME280;2220;42.670;23.398;2024-03-02T09:49:10;91352.03;;;8.82;100.00
4415;BME280;2220;42.670;23.398;2024-03-02T09:51:37;91348.69;;;8.81;100.00
4415;BME280;2220;42.670;23.398;2024-03-02T09:54:02;91346.06;;;8.81;100.00
4415;BME280;2220;42.670;23.398;2024-03-02T09:56:28;91344.25;;;8.69;100.00
4415;BME280;2220;42.670;23.398;2024-03-02T09:58:53;91352.81;;;8.70;100.00
4415;BME280;2220;42.670;23.398;2024-03-02T10:01:18;91347.06;;;8.77;100.00
4415;BME280;2220;42.670;23.398;2024-03-02T10:03:44;91350.75;;;8.63;100.00
4415;BME280;2220;42.670;23.398;2024-03-02T10:06:24;91336.78;;;8.80;100.00
4415;BME280;2220;42.670;23.398;2024-03-02T10:08:50;91331.38;;;8.85;100.00
4415;BME280;2220;42.670;23.398;2024-03-02T10:11:36;91341.34;;;8.83;100.00
4415;BME280;2220;42.670;23.398;2024-03-02T10:14:11;91328.19;;;9.04;100.00
4415;BME280;2220;42.670;23.398;2024-03-02T10:16:40;91339.59;;;9.00;100.00
4415;BME280;2220;42.670;23.398;2024-03-02T10:21:50;91321.34;;;9.24;100.00
4415;BME280;2220;42.670;23.398;2024-03-02T10:24:20;91330.72;;;9.29;100.00
4415;BME280;2220;42.670;23.398;2024-03-02T10:26:45;91346.13;;;9.21;100.00
4415;BME280;2220;42.670;23.398;2024-03-02T10:29:11;91346.13;;;9.21;100.00
4415;BME280;2220;42.670;23.398;2024-03-02T10:31:41;91345.81;;;9.23;100.00
4415;BME280;2220;42.670;23.398;2024-03-02T10:34:08;91352.63;;;9.15;100.00
4415;BME280;2220;42.670;23.398;2024-03-02T10:36:34;91361.09;;;9.00;100.00
4415;BME280;2220;42.670;23.398;2024-03-02T10:39:03;91361.09;;;8.88;100.00
4415;BME280;2220;42.670;23.398;2024-03-02T10:41:32;91355.41;;;8.70;100.00
4415;BME280;2220;42.670;23.398;2024-03-02T10:43:59;91350.75;;;8.76;100.00
4415;BME280;2220;42.670;23.398;2024-03-02T10:46:28;91334.00;;;8.61;100.00
4415;BME280;2220;42.670;23.398;2024-03-02T10:48:55;91328.66;;;8.82;100.00
4415;BME280;2220;42.670;23.398;2024-03-02T10:51:27;91312.22;;;9.02;100.00
4415;BME280;2220;42.670;23.398;2024-03-02T10:53:54;91309.41;;;8.95;100.00
4415;BME280;2220;42.670;23.398;2024-03-02T10:56:43;91319.25;;;8.89;100.00
4415;BME280;2220;42.670;23.398;2024-03-02T10:59:35;91325.78;;;8.83;100.00
4415;BME280;2220;42.670;23.398;2024-03-02T11:02:03;91321.34;;;8.84;100.00
4415;BME280;2220;42.670;23.398;2024-03-02T11:04:31;91329.34;;;8.79;100.00
4415;BME280;2220;42.670;23.398;2024-03-02T11:07:00;91321.53;;;8.91;100.00
4415;BME280;2220;42.670;23.398;2024-03-02T11:09:28;91327.16;;;8.93;100.00
4415;BME280;2220;42.670;23.398;2024-03-02T11:14:52;91349.03;;;8.67;100.00
4415;BME280;2220;42.670;23.398;2024-03-02T11:17:21;91349.88;;;8.72;100.00
4415;BME280;2220;42.670;23.398;2024-03-02T11:19:47;91355.84;;;8.60;100.00
4415;BME280;2220;42.670;23.398;2024-03-02T11:22:14;91343.41;;;8.78;100.00
4415;BME280;2220;42.670;23.398;2024-03-02T11:24:50;91344.06;;;8.62;100.00
4415;BME280;2220;42.670;23.398;2024-03-02T11:32:55;91332.69;;;8.79;100.00
4415;BME280;2220;42.670;23.398;2024-03-02T11:35:21;91346.84;;;8.94;100.00
4415;BME280;2220;42.670;23.398;2024-03-02T11:37:46;91355.41;;;8.82;100.00
4415;BME280;2220;42.670;23.398;2024-03-02T11:40:13;91345.53;;;8.88;100.00
4415;BME280;2220;42.670;23.398;2024-03-02T11:42:38;91343.16;;;8.95;100.00
4415;BME280;2220;42.670;23.398;2024-03-02T11:45:04;91359.19;;;8.85;100.00
4415;BME280;2220;42.670;23.398;2024-03-02T11:47:31;91355.94;;;8.76;100.00
4415;BME280;2220;42.670;23.398;2024-03-02T11:49:56;91359.28;;;8.76;100.00
4415;BME280;2220;42.670;23.398;2024-03-02T11:52:24;91353.56;;;8.83;100.00
4415;BME280;2220;42.670;23.398;2024-03-02T11:54:51;91333.56;;;8.71;100.00
4415;BME280;2220;42.670;23.398;2024-03-02T11:57:19;91344.69;;;8.72;100.00
4415;BME280;2220;42.670;23.398;2024-03-02T11:59:45;91333.84;;;8.82;100.00
4415;BME280;2220;42.670;23.398;2024-03-02T12:02:18;91316.91;;;8.84;100.00
4415;BME280;2220;42.670;23.398;2024-03-02T12:04:44;91309.94;;;9.01;100.00
4415;BME280;2220;42.670;23.398;2024-03-02T12:07:10;91316.72;;;9.05;100.00
4415;BME280;2220;42.670;23.398;2024-03-02T12:09:36;91304.72;;;9.13;100.00
4415;BME280;2220;42.670;23.398;2024-03-02T12:12:10;91275.22;;;9.33;100.00
4415;BME280;2220;42.670;23.398;2024-03-02T12:14:38;91274.47;;;9.33;100.00
4415;BME280;2220;42.670;23.398;2024-03-02T12:17:06;91268.19;;;9.34;100.00
4415;BME280;2220;42.670;23.398;2024-03-02T12:19:32;91253.31;;;9.46;100.00
4415;BME280;2220;42.670;23.398;2024-03-02T12:21:59;91237.81;;;9.50;100.00
4415;BME280;2220;42.670;23.398;2024-03-02T12:24:27;91223.97;;;9.62;100.00
4415;BME280;2220;42.670;23.398;2024-03-02T12:26:53;91215.00;;;9.59;100.00
4415;BME280;2220;42.670;23.398;2024-03-02T12:29:20;91206.97;;;9.64;100.00
4415;BME280;2220;42.670;23.398;2024-03-02T12:31:48;91189.22;;;9.66;100.00
4415;BME280;2220;42.670;23.398;2024-03-02T12:34:15;91179.91;;;9.81;100.00
4415;BME280;2220;42.670;23.398;2024-03-02T12:36:41;91185.09;;;9.65;100.00
4415;BME280;2220;42.670;23.398;2024-03-02T12:39:10;91187.34;;;9.51;100.00
4415;BME280;2220;42.670;23.398;2024-03-02T12:41:38;91205.34;;;9.44;100.00
4415;BME280;2220;42.670;23.398;2024-03-02T12:44:05;91200.09;;;9.40;100.00
4415;BME280;2220;42.670;23.398;2024-03-02T12:46:31;91208.88;;;9.36;100.00
4415;BME280;2220;42.670;23.398;2024-03-02T12:48:57;91208.38;;;9.46;100.00
4415;BME280;2220;42.670;23.398;2024-03-02T12:51:24;91213.53;;;9.30;100.00
4415;BME280;2220;42.670;23.398;2024-03-02T12:53:54;91219.25;;;9.36;100.00
4415;BME280;2220;42.670;23.398;2024-03-02T12:56:20;91217.41;;;9.36;100.00
4415;BME280;2220;42.670;23.398;2024-03-02T12:58:46;91215.41;;;9.45;100.00
4415;BME280;2220;42.670;23.398;2024-03-02T13:01:11;91219.78;;;9.41;100.00
4415;BME280;2220;42.670;23.398;2024-03-02T13:03:40;91212.75;;;9.58;100.00
4415;BME280;2220;42.670;23.398;2024-03-02T13:06:06;91224.06;;;9.49;100.00
4415;BME280;2220;42.670;23.398;2024-03-02T13:08:35;91221.66;;;9.72;100.00
4415;BME280;2220;42.670;23.398;2024-03-02T13:11:01;91210.81;;;9.86;100.00
4415;BME280;2220;42.670;23.398;2024-03-02T13:13:26;91208.50;;;9.97;100.00
4415;BME280;2220;42.670;23.398;2024-03-02T13:15:55;91221.38;;;10.09;100.00
4415;BME280;2220;42.670;23.398;2024-03-02T13:18:21;91236.75;;;9.98;100.00
4415;BME280;2220;42.670;23.398;2024-03-02T13:20:47;91250.84;;;10.29;100.00
4415;BME280;2220;42.670;23.398;2024-03-02T13:23:12;91283.78;;;10.09;100.00
4415;BME280;2220;42.670;23.398;2024-03-02T13:25:38;91311.16;;;10.19;100.00